Time;durP1;ratioP1;P1;durP2;ratioP2;P2;SDS_P1;SDS_P2;PMS_P1;PMS_P2;Temp;Humidity;BMP_temperature;BMP_pressure;BME280_temperature;BME280_humidity;BME280_pressure;Samples;Min_cycle;Max_cycle;Signal;HPM_P1;HPM_P2
2024/01/21 00:00:06;;;;;;;9.08;3.87;;;;;;;-0.76;97.12;101421.08;1739397;82;25460;-52
2024/01/21 00:02:32;;;;;;;;;;;;;;;-0.83;97.07;101422.93;1709357;83;25474;-52
2024/01/21 00:04:58;;;;;;;5.08;2.17;;;;;;;-0.90;97.15;101412.83;1708629;84;34799;-52
2024/01/21 00:07:24;;;;;;;5.62;2.90;;;;;;;-0.95;97.17;101416.61;1739791;82;25623;-49
2024/01/21 00:09:50;;;;;;;7.45;2.83;;;;;;;-1.04;97.17;101421.80;1739770;82;27370;-50
2024/01/21 00:12:16;;;;;;;79.62;73.75;;;;;;;-1.07;97.23;101430.16;1742674;82;25466;-49
2024/01/21 00:14:42;;;;;;;23.40;21.60;;;;;;;-1.17;97.09;101420.77;1718659;83;25556;-51
2024/01/21 00:17:09;;;;;;;4.97;2.08;;;;;;;-1.22;96.88;101432.52;1750002;82;25715;-48
2024/01/21 00:19:36;;;;;;;2.62;1.80;;;;;;;-1.28;96.91;101431.98;1718665;83;25445;-50
2024/01/21 00:22:02;;;;;;;68.47;63.48;;;;;;;-1.36;96.85;101431.68;1750011;82;27447;-49
2024/01/21 00:24:28;;;;;;;82.75;76.55;;;;;;;-1.44;96.79;101435.84;1718568;83;25608;-50
2024/01/21 00:26:54;;;;;;;85.65;79.35;;;;;;;-1.49;96.66;101434.82;1750038;82;25386;-52
2024/01/21 00:29:21;;;;;;;62.78;58.10;;;;;;;-1.57;96.60;101437.95;1718565;83;25673;-50
2024/01/21 00:31:47;;;;;;;81.37;75.03;;;;;;;-1.63;96.56;101446.72;1750106;82;25623;-51
2024/01/21 00:34:13;;;;;;;13.85;5.87;;;;;;;-1.72;96.47;101456.70;1718588;83;27343;-52
2024/01/21 00:36:39;;;;;;;10.98;6.25;;;;;;;-1.77;96.52;101458.29;1749979;82;25414;-49
2024/01/21 00:39:06;;;;;;;9.95;4.60;;;;;;;-1.81;96.66;101465.02;1750073;82;25410;-50
2024/01/21 00:41:32;;;;;;;9.73;3.92;;;;;;;-1.87;96.87;101477.25;1750048;82;25621;-50
2024/01/21 00:43:58;;;;;;;10.48;3.80;;;;;;;-1.91;97.05;101478.64;1750056;82;25555;-48
2024/01/21 00:46:24;;;;;;;8.00;4.00;;;;;;;-1.94;97.15;101485.66;1718656;83;27426;-49
2024/01/21 00:48:51;;;;;;;11.75;4.10;;;;;;;-1.99;97.10;101484.94;1749949;82;25547;-49
2024/01/21 00:51:19;;;;;;;8.53;3.67;;;;;;;-2.02;97.14;101484.00;1718633;83;25600;-49
2024/01/21 00:53:45;;;;;;;8.20;3.58;;;;;;;-2.07;97.07;101495.18;1749999;82;25619;-48
2024/01/21 00:56:11;;;;;;;10.48;4.00;;;;;;;-2.09;97.12;101489.78;1718651;83;25406;-49
2024/01/21 00:58:37;;;;;;;6.30;3.50;;;;;;;-2.12;97.27;101501.58;1750051;82;27341;-48
2024/01/21 01:01:04;;;;;;;7.60;3.40;;;;;;;-2.13;97.32;101497.30;1718515;83;25652;-49
2024/01/21 01:03:30;;;;;;;6.30;3.27;;;;;;;-2.16;97.20;101502.99;1749994;82;25630;-49
2024/01/21 01:05:59;;;;;;;8.95;3.33;;;;;;;-2.17;97.04;101512.47;1718527;83;25614;-49
2024/01/21 01:08:25;;;;;;;8.20;3.02;;;;;;;-2.19;97.11;101514.50;1750101;82;25404;-49
2024/01/21 01:10:51;;;;;;;9.38;3.47;;;;;;;-2.21;97.11;101525.29;1750007;82;27368;-48
2024/01/21 01:13:17;;;;;;;9.30;3.40;;;;;;;-2.22;97.23;101523.64;1743883;82;25706;-48
2024/01/21 01:15:43;;;;;;;11.25;3.75;;;;;;;-2.24;97.15;101527.51;1739010;82;25719;-50
2024/01/21 01:18:10;;;;;;;9.50;3.83;;;;;;;-2.26;97.14;101529.02;1707990;84;25656;-49
2024/01/21 01:20:36;;;;;;;6.42;3.20;;;;;;;-2.28;97.14;101532.38;1739083;82;25646;-49
2024/01/21 01:23:02;;;;;;;13.58;4.72;;;;;;;-2.29;97.11;101541.33;1739067;82;27269;-49
2024/01/21 01:25:28;;;;;;;12.13;3.87;;;;;;;-2.32;97.13;101545.17;1738994;82;25741;-51
2024/01/21 01:27:54;;;;;;;9.88;4.67;;;;;;;-2.33;97.21;101554.16;1708054;84;25665;-49
2024/01/21 01:30:21;;;;;;;10.55;4.25;;;;;;;-2.34;97.30;101552.50;1739623;82;25599;-49
2024/01/21 01:32:47;;;;;;;8.88;3.30;;;;;;;-2.36;97.35;101555.86;1708621;84;25553;-50
2024/01/21 01:35:13;;;;;;;9.13;3.42;;;;;;;-2.35;97.34;101567.27;1739688;82;27355;-48
2024/01/21 01:37:39;;;;;;;8.53;3.87;;;;;;;-2.38;97.14;101562.34;1708553;84;25644;-48
2024/01/21 01:40:07;;;;;;;10.43;3.70;;;;;;;-2.39;97.02;101560.73;1739650;82;25541;-48
2024/01/21 01:42:34;;;;;;;8.55;4.37;;;;;;;-2.45;96.85;101564.45;1708569;84;25845;-48
2024/01/21 01:45:00;;;;;;;12.50;3.85;;;;;;;-2.49;96.72;101563.18;1739711;82;25403;-48
2024/01/21 01:47:27;;;;;;;6.67;3.42;;;;;;;-2.53;96.68;101563.27;1708523;84;29474;-49
2024/01/21 01:49:55;;;;;;;8.63;3.67;;;;;;;-2.54;96.62;101574.05;1739569;82;25442;-48
2024/01/21 01:52:22;;;;;;;11.97;4.10;;;;;;;-2.58;96.62;101569.63;1739758;82;25623;-49
2024/01/21 01:54:49;;;;;;;8.38;4.08;;;;;;;-2.61;96.57;101577.15;1739653;82;26483;-49
2024/01/21 01:57:18;;;;;;;7.22;4.00;;;;;;;-2.64;96.66;101572.55;1739700;82;25381;-48
2024/01/21 01:59:44;;;;;;;10.27;4.87;;;;;;;-2.67;96.80;101579.55;1708839;84;27318;-49
2024/01/21 02:02:11;;;;;;;10.03;4.00;;;;;;;-2.69;97.05;101588.19;1739528;82;25560;-48
2024/01/21 02:04:37;;;;;;;8.18;3.90;;;;;;;-2.69;97.13;101591.33;1708674;84;25618;-49
2024/01/21 02:07:04;;;;;;;11.22;5.42;;;;;;;-2.70;97.16;101598.97;1739652;82;25622;-48
2024/01/21 02:09:30;;;;;;;11.65;4.30;;;;;;;-2.72;97.00;101599.67;1686341;84;25500;-49
2024/01/21 02:11:57;;;;;;;10.90;4.08;;;;;;;-2.76;96.92;101600.52;1739623;82;29383;-49
2024/01/21 02:14:24;;;;;;;10.98;4.60;;;;;;;-2.78;96.88;101609.17;1708486;83;25429;-48
2024/01/21 02:16:50;;;;;;;9.85;4.65;;;;;;;-2.81;96.90;101606.89;1739731;82;25433;-50
2024/01/21 02:19:30;;;;;;;9.68;4.87;;;;;;;-2.84;96.93;101610.75;1708694;84;25668;-49
2024/01/21 02:21:56;;;;;;;8.43;4.42;;;;;;;-2.88;96.70;101606.84;1739845;82;25429;-49
2024/01/21 02:24:31;;;;;;;10.10;4.58;;;;;;;-2.91;96.72;101609.86;1708712;84;27338;-48
2024/01/21 02:27:00;;;;;;;9.83;4.50;;;;;;;-2.94;96.66;101612.07;1739708;82;25430;-48
2024/01/21 02:29:27;;;;;;;8.68;4.50;;;;;;;-2.97;96.78;101618.55;1739959;82;25625;-48
2024/01/21 02:31:56;;;;;;;12.07;4.80;;;;;;;-3.01;96.90;101618.09;1739761;82;26252;-48
2024/01/21 02:34:22;;;;;;;12.40;4.90;;;;;;;-3.02;97.11;101625.71;1739957;82;25408;-48
2024/01/21 02:36:48;;;;;;;7.85;4.40;;;;;;;-3.03;97.19;101633.36;1708761;84;27378;-48
2024/01/21 02:39:15;;;;;;;9.48;5.03;;;;;;;-3.06;97.05;101637.69;1739723;82;25556;-48
2024/01/21 02:41:41;;;;;;;9.95;5.10;;;;;;;-3.10;96.88;101643.05;1739766;82;25570;-51
2024/01/21 02:44:07;;;;;;;10.90;5.10;;;;;;;-3.14;96.61;101648.38;1739757;82;25695;-48
2024/01/21 02:46:33;;;;;;;13.93;6.05;;;;;;;-3.18;96.50;101652.41;1739929;82;25587;-48
2024/01/21 02:48:59;;;;;;;12.93;5.85;;;;;;;-3.22;96.52;101652.45;1708811;84;27377;-50
2024/01/21 02:51:25;;;;;;;10.15;7.20;;;;;;;-3.25;96.70;101651.48;1739672;82;25507;-47
2024/01/21 02:53:52;;;;;;;12.33;6.10;;;;;;;-3.28;96.76;101650.04;1708707;84;25652;-50
2024/01/21 02:56:30;;;;;;;10.35;5.58;;;;;;;-3.30;96.81;101653.86;1739754;82;25652;-48
2024/01/21 02:58:54;;;;;;;10.98;5.65;;;;;;;-3.33;96.84;101653.73;1738813;82;25583;-49
2024/01/21 03:01:21;;;;;;;10.82;5.33;;;;;;;-3.36;96.81;101652.78;1739790;82;27876;-48
2024/01/21 03:03:47;;;;;;;13.13;5.65;;;;;;;-3.39;96.97;101651.81;1686331;84;25630;-48
2024/01/21 03:06:13;;;;;;;13.25;6.00;;;;;;;-3.41;97.06;101653.83;1739763;82;25557;-48
2024/01/21 03:08:40;;;;;;;15.53;6.17;;;;;;;-3.44;96.85;101666.09;1708769;84;25688;-47
2024/01/21 03:11:06;;;;;;;9.53;5.25;;;;;;;-3.47;96.89;101667.80;1739900;82;25596;-47
2024/01/21 03:13:32;;;;;;;9.68;5.28;;;;;;;-3.49;97.02;101667.98;1703274;83;27322;-48
2024/01/21 03:15:58;;;;;;;13.45;6.42;;;;;;;-3.53;96.95;101671.16;1719913;83;25583;-47
2024/01/21 03:18:25;;;;;;;12.00;5.33;;;;;;;-3.55;96.99;101670.53;1757244;81;25687;-51
2024/01/21 03:20:52;;;;;;;12.13;5.40;;;;;;;-3.59;96.92;101674.05;1761324;81;25620;-49
2024/01/21 03:23:18;;;;;;;13.15;5.40;;;;;;;-3.61;97.09;101679.51;1761333;81;25584;-48
2024/01/21 03:25:45;;;;;;;11.25;5.10;;;;;;;-3.64;97.17;101676.41;1761397;81;27315;-49
2024/01/21 03:28:12;;;;;;;12.15;5.10;;;;;;;-3.69;97.00;101670.33;1761250;81;25566;-48
2024/01/21 03:30:39;;;;;;;10.20;5.25;;;;;;;-3.73;96.86;101678.28;1761328;81;25445;-50
2024/01/21 03:33:05;;;;;;;12.23;5.90;;;;;;;-3.77;96.85;101682.30;1761308;81;27815;-48
2024/01/21 03:35:31;;;;;;;7.87;3.87;;;;;;;-3.80;96.82;101689.27;1761400;81;25636;-47
2024/01/21 03:37:57;;;;;;;9.88;5.00;;;;;;;-3.87;96.88;101684.37;1761356;81;27921;-48
2024/01/21 03:40:24;;;;;;;9.65;5.03;;;;;;;-3.90;96.81;101693.47;1761263;81;25583;-48
2024/01/21 03:42:50;;;;;;;11.48;5.03;;;;;;;-3.95;96.75;101685.26;1761346;81;25614;-48
2024/01/21 03:45:17;;;;;;;11.00;5.67;;;;;;;-4.00;96.69;101683.17;1761335;81;25709;-48
2024/01/21 03:47:43;;;;;;;8.60;5.12;;;;;;;-4.04;96.74;101688.47;1761357;81;25380;-49
2024/01/21 03:50:09;;;;;;;11.00;5.33;;;;;;;-4.05;96.98;101690.81;1761330;81;27309;-48
2024/01/21 03:52:36;;;;;;;8.58;5.47;;;;;;;-4.09;96.97;101704.04;1761269;81;25633;-49
2024/01/21 03:55:02;;;;;;;17.80;6.22;;;;;;;-4.11;96.78;101705.23;1761364;81;25619;-47
2024/01/21 03:57:28;;;;;;;11.05;5.87;;;;;;;-4.17;96.52;101710.70;1761315;81;26247;-49
2024/01/21 03:59:55;;;;;;;15.43;7.75;;;;;;;-4.22;96.10;101712.58;1761380;81;25623;-48
2024/01/21 04:02:23;;;;;;;11.08;5.37;;;;;;;-4.27;96.04;101714.92;1761457;81;27251;-48
2024/01/21 04:04:53;;;;;;;16.60;5.85;;;;;;;-4.32;96.04;101710.66;1761403;81;25665;-49
2024/01/21 04:07:20;;;;;;;11.08;6.75;;;;;;;-4.35;96.32;101717.61;1761564;81;25377;-48
2024/01/21 04:09:46;;;;;;;14.53;5.78;;;;;;;-4.40;96.21;101717.31;1761284;81;25663;-48
2024/01/21 04:12:13;;;;;;;12.90;6.35;;;;;;;-4.44;96.20;101722.61;1761381;81;25380;-48
2024/01/21 04:14:40;;;;;;;10.72;5.58;;;;;;;-4.48;96.21;101728.73;1761235;81;27295;-48
2024/01/21 04:17:06;;;;;;;15.90;6.47;;;;;;;-4.54;96.09;101723.66;1761256;81;25898;-48
2024/01/21 04:19:33;;;;;;;13.60;6.47;;;;;;;-4.58;96.15;101734.27;1761331;81;25621;-47
2024/01/21 04:22:00;;;;;;;9.58;5.50;;;;;;;-4.62;96.06;101732.95;1761268;81;25629;-49
2024/01/21 04:24:27;;;;;;;11.78;6.25;;;;;;;-4.68;96.02;101733.66;1761332;81;25602;-48
2024/01/21 04:26:53;;;;;;;14.98;6.78;;;;;;;-4.72;96.27;101734.97;1761351;81;27333;-48
2024/01/21 04:29:19;;;;;;;12.13;6.42;;;;;;;-4.76;96.30;101733.18;1761232;81;25613;-49
2024/01/21 04:31:46;;;;;;;11.33;6.05;;;;;;;-4.79;96.42;101736.66;1761342;81;25434;-48
2024/01/21 04:34:13;;;;;;;16.23;8.38;;;;;;;-4.81;96.45;101739.47;1761385;81;25599;-48
2024/01/21 04:36:40;;;;;;;15.03;7.75;;;;;;;-4.85;96.40;101734.22;1761353;81;25617;-47
2024/01/21 04:39:07;;;;;;;12.47;7.12;;;;;;;-4.91;96.17;101733.58;1761327;81;27998;-48
2024/01/21 04:41:33;;;;;;;12.65;7.08;;;;;;;-4.98;95.95;101743.99;1761172;81;25526;-48
2024/01/21 04:44:01;;;;;;;12.58;7.53;;;;;;;-5.03;95.76;101745.00;1761233;81;25714;-49
2024/01/21 04:46:27;;;;;;;14.18;8.50;;;;;;;-5.08;95.74;101751.28;1761295;81;26193;-48
2024/01/21 04:48:54;;;;;;;12.75;7.60;;;;;;;-5.12;95.78;101752.13;1761329;81;25436;-48
2024/01/21 04:51:20;;;;;;;16.65;8.55;;;;;;;-5.15;95.63;101747.68;1761395;80;27389;-49
2024/01/21 04:53:46;;;;;;;18.98;10.48;;;;;;;-5.22;95.48;101750.67;1761289;81;25551;-47
2024/01/21 04:56:18;;;;;;;19.00;9.70;;;;;;;-5.28;95.54;101746.40;1761313;81;25637;-48
2024/01/21 04:58:45;;;;;;;20.23;8.80;;;;;;;-5.32;95.58;101754.30;1761255;81;25600;-49
2024/01/21 05:01:13;;;;;;;13.30;7.95;;;;;;;-5.35;95.67;101756.45;1761335;81;25467;-48
2024/01/21 05:03:39;;;;;;;16.70;8.08;;;;;;;-5.40;95.54;101750.86;1761278;81;27941;-49
2024/01/21 05:06:06;;;;;;;13.75;7.10;;;;;;;-5.44;95.40;101750.38;1761220;81;25673;-49
2024/01/21 05:08:32;;;;;;;14.05;7.70;;;;;;;-5.49;95.23;101750.87;1761254;81;25546;-50
2024/01/21 05:11:00;;;;;;;12.63;7.92;;;;;;;-5.55;95.02;101738.84;1761231;81;25639;-49
2024/01/21 05:13:26;;;;;;;15.05;7.45;;;;;;;-5.61;94.88;101740.84;1760594;81;25661;-49
2024/01/21 05:15:53;;;;;;;14.55;7.92;;;;;;;-5.68;94.70;101738.86;1739713;82;27335;-51
2024/01/21 05:18:20;;;;;;;15.30;7.42;;;;;;;-5.73;94.43;101753.53;1708548;84;25661;-50
2024/01/21 05:20:47;;;;;;;13.50;7.30;;;;;;;-5.80;94.36;101756.01;1739751;82;25454;-49
2024/01/21 05:23:14;;;;;;;13.90;6.75;;;;;;;-5.86;94.17;101762.73;1708607;84;25675;-49
2024/01/21 05:25:40;;;;;;;11.50;7.08;;;;;;;-5.92;94.16;101766.55;1739716;82;25400;-52
2024/01/21 05:28:06;;;;;;;11.53;6.30;;;;;;;-5.98;94.19;101765.41;1708623;84;27392;-49
2024/01/21 05:30:33;;;;;;;11.80;7.08;;;;;;;-6.05;94.17;101767.86;1739567;82;27108;-49
2024/01/21 05:32:59;;;;;;;14.05;7.10;;;;;;;-6.11;94.10;101772.95;1708653;84;25581;-49
2024/01/21 05:35:25;;;;;;;8.40;5.33;;;;;;;-6.17;94.11;101769.67;1739668;82;25614;-48
2024/01/21 05:37:51;;;;;;;12.13;6.15;;;;;;;-6.23;94.21;101775.92;1708667;84;25592;-49
2024/01/21 05:40:17;;;;;;;10.82;6.37;;;;;;;-6.26;94.19;101786.77;1739669;82;27343;-50
2024/01/21 05:42:44;;;;;;;9.30;5.08;;;;;;;-6.29;94.13;101792.86;1708527;84;25475;-50
2024/01/21 05:45:10;;;;;;;13.60;6.70;;;;;;;-6.34;93.98;101797.78;1739684;82;25611;-49
2024/01/21 05:47:37;;;;;;;13.80;7.00;;;;;;;-6.39;93.92;101798.25;1739668;82;26182;-49
2024/01/21 05:50:04;;;;;;;15.40;7.62;;;;;;;-6.46;93.94;101804.64;1739708;82;25459;-49
2024/01/21 05:52:32;;;;;;;16.00;8.45;;;;;;;-6.51;93.84;101801.66;1708696;84;27321;-51
2024/01/21 05:54:59;;;;;;;17.73;9.53;;;;;;;-6.58;93.51;101801.97;1739798;82;27125;-48
2024/01/21 05:57:25;;;;;;;21.23;10.32;;;;;;;-6.62;93.40;101798.02;1708779;84;25472;-51
2024/01/21 05:59:51;;;;;;;23.60;9.53;;;;;;;-6.68;93.37;101796.01;1739800;82;25523;-48
2024/01/21 06:02:18;;;;;;;15.65;7.42;;;;;;;-6.77;93.22;101791.20;1708756;84;25402;-48
2024/01/21 06:04:44;;;;;;;20.60;10.35;;;;;;;-6.83;93.08;101801.03;1739836;82;27317;-49
2024/01/21 06:07:10;;;;;;;18.30;10.45;;;;;;;-6.91;92.94;101804.93;1708774;84;25550;-49
2024/01/21 06:09:37;;;;;;;20.10;11.05;;;;;;;-6.92;92.83;101809.87;1739800;82;25423;-47
2024/01/21 06:12:04;;;;;;;19.75;10.70;;;;;;;-6.96;92.93;101806.73;1708676;84;25634;-48
2024/01/21 06:14:30;;;;;;;27.05;11.97;;;;;;;-6.99;93.11;101804.41;1739780;82;25540;-48
2024/01/21 06:16:57;;;;;;;21.45;9.88;;;;;;;-7.01;93.29;101803.75;1708744;84;27941;-48
2024/01/21 06:19:23;;;;;;;24.75;11.97;;;;;;;-7.02;93.32;101802.09;1739732;82;25655;-48
2024/01/21 06:21:49;;;;;;;22.77;11.95;;;;;;;-7.06;93.40;101804.20;1708771;84;25500;-47
2024/01/21 06:24:17;;;;;;;35.88;16.65;;;;;;;-7.07;93.98;101806.48;1739766;82;25646;-49
2024/01/21 06:26:44;;;;;;;27.98;13.80;;;;;;;-7.04;94.71;101800.92;1708779;84;25471;-48
2024/01/21 06:29:12;;;;;;;26.52;12.85;;;;;;;-6.99;95.38;101803.09;1739777;82;27689;-49
2024/01/21 06:31:38;;;;;;;27.27;13.03;;;;;;;-6.91;96.47;101802.30;1708681;84;25628;-50
2024/01/21 06:34:05;;;;;;;27.20;11.95;;;;;;;-6.86;96.48;101807.91;1739807;82;25538;-51
2024/01/21 06:36:31;;;;;;;25.77;12.55;;;;;;;-6.84;96.10;101821.77;1708716;84;25628;-49
2024/01/21 06:38:57;;;;;;;24.32;11.80;;;;;;;-6.84;95.89;101823.90;1739825;82;25487;-51
2024/01/21 06:41:24;;;;;;;25.88;12.70;;;;;;;-6.83;95.58;101830.79;1708705;84;27310;-50
2024/01/21 06:43:50;;;;;;;20.95;11.48;;;;;;;-6.85;95.13;101834.08;1739722;82;25514;-50
2024/01/21 06:46:16;;;;;;;29.45;14.07;;;;;;;-6.88;94.52;101844.91;1708740;84;25564;-48
2024/01/21 06:48:43;;;;;;;29.67;14.45;;;;;;;-6.89;94.40;101847.22;1739771;82;25609;-48
2024/01/21 06:51:20;;;;;;;34.48;15.18;;;;;;;-6.88;94.77;101840.14;1708817;84;25456;-48
2024/01/21 06:53:40;;;;;;;32.48;15.70;;;;;;;-6.86;95.45;101840.81;1738675;82;28187;-49
2024/01/21 06:56:08;;;;;;;28.98;14.95;;;;;;;-6.83;95.97;101843.95;1708676;84;25711;-48
2024/01/21 06:58:34;;;;;;;26.48;14.47;;;;;;;-6.78;96.28;101846.94;1739815;82;25459;-49
2024/01/21 07:01:01;;;;;;;34.85;16.00;;;;;;;-6.71;96.75;101846.33;1708701;84;25673;-52
2024/01/21 07:03:29;;;;;;;38.88;17.90;;;;;;;-6.69;96.54;101844.35;1739730;82;25541;-52
2024/01/21 07:05:56;;;;;;;34.40;17.02;;;;;;;-6.64;96.25;101859.19;1708732;84;27399;-50
2024/01/21 07:08:22;;;;;;;29.60;15.28;;;;;;;-6.64;96.02;101858.72;1739682;82;25727;-49
2024/01/21 07:10:48;;;;;;;28.40;15.25;;;;;;;-6.61;95.89;101859.69;1708726;84;25470;-48
2024/01/21 07:13:15;;;;;;;38.00;17.05;;;;;;;-6.56;96.08;101860.55;1739725;82;26188;-49
2024/01/21 07:15:41;;;;;;;28.62;13.10;;;;;;;-6.53;96.31;101858.92;1699072;83;25798;-51
2024/01/21 07:18:09;;;;;;;24.05;12.55;;;;;;;-6.48;96.72;101858.45;1719973;83;27327;-51
2024/01/21 07:20:35;;;;;;;27.87;13.48;;;;;;;-6.42;96.92;101861.29;1719868;83;25647;-50
2024/01/21 07:23:01;;;;;;;22.20;11.97;;;;;;;-6.33;97.67;101864.78;1757777;81;25631;-50
2024/01/21 07:25:27;;;;;;;24.98;13.53;;;;;;;-6.27;98.03;101866.75;1761320;81;25602;-48
2024/01/21 07:27:53;;;;;;;23.80;12.58;;;;;;;-6.16;98.30;101872.72;1761404;81;25552;-51
2024/01/21 07:30:20;;;;;;;25.85;11.53;;;;;;;-6.10;98.65;101867.64;1761336;81;27321;-48
2024/01/21 07:32:46;;;;;;;21.60;12.43;;;;;;;-5.98;98.95;101869.48;1761306;81;25560;-48
2024/01/21 07:35:12;;;;;;;31.77;12.45;;;;;;;-5.91;98.67;101869.64;1730341;82;25378;-50
2024/01/21 07:37:38;;;;;;;33.00;13.43;;;;;;;-5.88;98.26;101864.05;1730322;82;25695;-50
2024/01/21 07:40:06;;;;;;;25.68;11.60;;;;;;;-5.85;98.10;101861.91;1769274;81;25400;-51
2024/01/21 07:42:33;;;;;;;24.60;11.85;;;;;;;-5.79;98.07;101869.66;1761367;81;27390;-49
2024/01/21 07:44:59;;;;;;;23.10;11.80;;;;;;;-5.71;98.54;101867.04;1761254;81;25598;-50
2024/01/21 07:47:26;;;;;;;25.50;11.83;;;;;;;-5.58;99.41;101869.69;1761370;81;25386;-53
2024/01/21 07:49:52;;;;;;;26.57;11.55;;;;;;;-5.45;100.00;101873.52;1761348;81;25676;-50
2024/01/21 07:52:18;;;;;;;28.92;13.98;;;;;;;-5.29;100.00;101881.91;1761406;81;25639;-51
2024/01/21 07:54:45;;;;;;;28.70;13.53;;;;;;;-5.12;100.00;101885.88;1730331;82;27329;-49
2024/01/21 07:57:11;;;;;;;34.05;14.03;;;;;;;-4.95;100.00;101878.77;1730262;81;25584;-50
2024/01/21 07:59:38;;;;;;;31.75;15.13;;;;;;;-4.77;100.00;101883.33;1735238;82;25364;-52
2024/01/21 08:02:04;;;;;;;32.33;15.60;;;;;;;-4.53;100.00;101877.66;1742416;81;25634;-49
2024/01/21 08:04:30;;;;;;;33.95;16.75;;;;;;;-4.19;100.00;101885.80;1751795;81;25529;-49
2024/01/21 08:06:57;;;;;;;40.23;19.17;;;;;;;-3.79;100.00;101884.77;1772535;81;27317;-49
2024/01/21 08:09:23;;;;;;;37.85;18.77;;;;;;;-3.29;100.00;101885.75;1772365;80;25475;-49
2024/01/21 08:11:49;;;;;;;39.88;19.05;;;;;;;-2.65;100.00;101887.47;1772574;80;25395;-49
2024/01/21 08:14:15;;;;;;;40.35;20.57;;;;;;;-1.77;100.00;101885.39;1764797;81;25673;-49
2024/01/21 08:16:41;;;;;;;42.75;22.60;;;;;;;-1.13;100.00;101892.02;1741557;80;25547;-50
2024/01/21 08:19:07;;;;;;;56.63;25.57;;;;;;;-0.57;100.00;101894.37;1739746;82;27367;-49
2024/01/21 08:21:34;;;;;;;51.08;25.43;;;;;;;0.03;100.00;101900.50;1708622;84;25414;-50
2024/01/21 08:24:00;;;;;;;56.92;26.68;;;;;;;0.58;100.00;101908.41;1739680;82;25602;-51
2024/01/21 08:26:26;;;;;;;44.90;24.23;;;;;;;0.85;100.00;101911.92;1708692;84;25634;-50
2024/01/21 08:28:53;;;;;;;39.33;19.35;;;;;;;0.98;100.00;101908.45;1739769;82;25642;-50
2024/01/21 08:31:19;;;;;;;77.45;32.05;;;;;;;1.05;100.00;101911.94;1708702;84;27386;-50
2024/01/21 08:33:46;;;;;;;121.02;45.58;;;;;;;1.27;100.00;101907.20;1739723;82;25548;-50
2024/01/21 08:36:12;;;;;;;87.97;38.60;;;;;;;1.79;100.00;101905.45;1708791;84;25635;-49
2024/01/21 08:38:38;;;;;;;56.35;26.55;;;;;;;2.27;100.00;101909.55;1739708;82;25617;-50
2024/01/21 08:41:04;;;;;;;35.68;17.20;;;;;;;2.64;100.00;101906.23;1708725;84;25485;-50
2024/01/21 08:43:31;;;;;;;29.10;16.32;;;;;;;2.85;100.00;101905.88;1739683;82;29502;-50
2024/01/21 08:45:57;;;;;;;29.23;15.70;;;;;;;3.18;99.11;101904.28;1708565;84;25223;-52
2024/01/21 08:48:24;;;;;;;29.63;15.45;;;;;;;3.49;99.81;101911.06;1739829;82;25567;-52
2024/01/21 08:50:50;;;;;;;31.02;16.85;;;;;;;3.89;98.56;101911.44;1708631;84;25639;-51
2024/01/21 08:53:16;;;;;;;33.25;15.38;;;;;;;4.50;100.00;101915.50;1739768;82;25453;-51
2024/01/21 08:55:43;;;;;;;30.52;14.90;;;;;;;5.06;98.90;101914.74;1708622;84;27380;-51
2024/01/21 08:58:09;;;;;;;31.90;16.10;;;;;;;5.10;91.21;101910.53;1739613;82;25522;-50
2024/01/21 09:00:35;;;;;;;26.62;16.00;;;;;;;5.22;92.03;101903.83;1708690;84;25594;-53
2024/01/21 09:03:02;;;;;;;29.25;16.55;;;;;;;5.57;92.37;101907.84;1739684;82;25682;-51
2024/01/21 09:05:28;;;;;;;28.23;15.13;;;;;;;6.16;93.92;101905.55;1708661;84;25447;-51
2024/01/21 09:07:54;;;;;;;24.75;13.75;;;;;;;6.66;91.03;101910.23;1739725;82;27334;-53
2024/01/21 09:10:21;;;;;;;26.50;14.93;;;;;;;6.77;85.79;101910.40;1708574;84;25677;-54
2024/01/21 09:12:48;;;;;;;30.05;16.73;;;;;;;6.89;85.53;101917.31;1739743;82;25429;-54
2024/01/21 09:15:14;;;;;;;32.00;16.17;;;;;;;7.22;85.64;101917.03;1708552;83;25625;-52
2024/01/21 09:17:41;;;;;;;29.92;15.15;;;;;;;7.60;84.44;101915.41;1739746;82;25429;-54
2024/01/21 09:20:09;;;;;;;27.95;15.38;;;;;;;7.55;80.65;101915.88;1708654;84;27522;-52
2024/01/21 09:22:35;;;;;;;31.35;16.97;;;;;;;7.53;78.55;101907.23;1739615;82;25560;-53
2024/01/21 09:25:02;;;;;;;31.60;18.60;;;;;;;7.58;79.23;101900.03;1708625;84;25450;-53
2024/01/21 09:27:28;;;;;;;31.40;16.40;;;;;;;7.98;80.11;101907.52;1739636;82;26180;-52
2024/01/21 09:29:54;;;;;;;31.50;17.98;;;;;;;8.32;79.36;101908.16;1708714;84;25403;-52
2024/01/21 09:32:21;;;;;;;30.00;18.15;;;;;;;8.75;79.84;101913.20;1739748;82;27329;-53
2024/01/21 09:34:47;;;;;;;33.60;18.60;;;;;;;9.22;78.73;101905.44;1708568;84;25439;-55
2024/01/21 09:37:14;;;;;;;33.38;18.70;;;;;;;9.57;77.54;101901.30;1739699;82;25514;-53
2024/01/21 09:39:40;;;;;;;38.58;20.55;;;;;;;9.85;75.91;101898.73;1708724;84;25701;-56
2024/01/21 09:42:08;;;;;;;36.08;20.30;;;;;;;10.04;74.79;101905.27;1739777;82;25626;-55
2024/01/21 09:44:34;;;;;;;34.70;20.25;;;;;;;10.02;72.01;101899.32;1708637;84;27342;-54
2024/01/21 09:47:03;;;;;;;34.95;20.82;;;;;;;10.00;70.65;101903.39;1739635;82;25458;-52
2024/01/21 09:49:34;;;;;;;36.47;22.27;;;;;;;10.14;71.78;101890.17;1708887;84;25636;-52
2024/01/21 09:52:02;;;;;;;38.23;21.57;;;;;;;10.14;71.78;101890.17;1739701;82;25612;-53
2024/01/21 09:54:29;;;;;;;35.75;20.35;;;;;;;10.04;67.68;101893.66;1708687;84;25697;-55
2024/01/21 09:56:55;;;;;;;39.33;21.80;;;;;;;10.02;68.75;101890.41;1739709;82;27382;-54
2024/01/21 09:59:22;;;;;;;37.48;22.37;;;;;;;10.28;69.07;101886.70;1708559;84;25468;-52
2024/01/21 10:01:49;;;;;;;36.03;22.62;;;;;;;10.21;66.99;101888.02;1739704;82;25616;-51
2024/01/21 10:04:15;;;;;;;35.83;21.55;;;;;;;10.35;68.21;101894.59;1708575;84;25653;-52
2024/01/21 10:06:42;;;;;;;36.93;23.10;;;;;;;10.68;66.10;101892.99;1739676;82;25575;-52
2024/01/21 10:09:16;;;;;;;40.80;23.47;;;;;;;10.67;66.89;101894.06;1708683;84;27347;-56
2024/01/21 10:11:49;;;;;;;40.00;23.35;;;;;;;10.96;67.33;101892.41;1739643;82;25528;-54
2024/01/21 10:14:16;;;;;;;37.17;23.25;;;;;;;11.05;65.77;101891.34;1742985;82;25598;-51
2024/01/21 10:16:44;;;;;;;41.18;22.73;;;;;;;10.85;64.08;101893.52;1704708;83;25636;-52
2024/01/21 10:19:18;;;;;;;38.55;23.27;;;;;;;10.57;63.00;101897.05;1752818;81;25649;-51
2024/01/21 10:21:44;;;;;;;39.83;22.52;;;;;;;9.98;61.99;101892.03;1748591;81;27334;-50
2024/01/21 10:24:11;;;;;;;40.55;23.55;;;;;;;9.43;61.79;101890.16;1752805;81;25471;-51
2024/01/21 10:26:42;;;;;;;40.45;23.65;;;;;;;8.78;61.01;101884.87;1752962;81;25559;-54
2024/01/21 10:29:09;;;;;;;39.55;23.12;;;;;;;8.19;61.93;101874.34;1752945;81;26150;-52
2024/01/21 10:31:35;;;;;;;37.70;23.10;;;;;;;7.73;62.58;101875.18;1752982;81;25405;-51
2024/01/21 10:34:02;;;;;;;42.45;23.62;;;;;;;7.63;65.24;101877.75;1752950;81;27406;-51
2024/01/21 10:36:33;;;;;;;41.77;22.25;;;;;;;7.93;67.12;101877.82;1752826;81;25536;-51
2024/01/21 10:39:06;;;;;;;36.20;21.17;;;;;;;8.17;67.20;101885.08;1753072;81;25459;-53
2024/01/21 10:41:35;;;;;;;39.20;22.02;;;;;;;8.11;65.97;101875.34;1753070;81;25617;-51
2024/01/21 10:44:04;;;;;;;37.93;22.05;;;;;;;8.53;66.64;101876.86;1753245;81;25613;-53
2024/01/21 10:46:37;;;;;;;40.90;22.80;;;;;;;8.37;64.13;101881.24;1753198;81;32480;-53
2024/01/21 10:49:04;;;;;;;37.83;22.25;;;;;;;7.97;63.48;101873.58;1753025;81;25565;-54
2024/01/21 10:51:30;;;;;;;34.95;21.68;;;;;;;7.43;63.29;101871.56;1753072;81;25626;-52
2024/01/21 10:53:59;;;;;;;43.42;22.52;;;;;;;6.95;63.39;101865.77;1753071;81;25673;-54
2024/01/21 10:56:26;;;;;;;40.85;21.85;;;;;;;6.48;64.30;101862.86;1753267;81;25424;-53
2024/01/21 10:58:53;;;;;;;41.80;22.13;;;;;;;6.13;64.82;101860.34;1753037;81;29529;-53
2024/01/21 11:01:24;;;;;;;40.95;21.62;;;;;;;6.01;66.28;101866.30;1752987;81;25633;-52
2024/01/21 11:04:07;;;;;;;43.42;22.27;;;;;;;5.95;67.08;101869.39;1753123;81;25607;-52
2024/01/21 11:06:34;;;;;;;36.25;21.68;;;;;;;5.86;66.69;101871.65;1752977;81;25590;-54
2024/01/21 11:09:06;;;;;;;43.68;22.07;;;;;;;5.65;66.60;101877.11;1753121;81;25385;-51
2024/01/21 11:11:31;;;;;;;43.17;21.73;;;;;;;5.28;66.34;101881.95;1752478;81;27338;-52
2024/01/21 11:13:57;;;;;;;42.30;22.10;;;;;;;4.90;66.67;101886.72;1752989;81;25443;-52